Columbia — WYR2092 — position and weather

sailwx.info

Track history (hours):
 
Tides and Currents Weather Stations Pressure Air Temp Water Temp Dewpoint Dewpoint Depression Visibility Wind Speed Wind Dir Waves Ship Positions

Columbia

Owner: ALASKA, STATE OF, ANCHORAGE, AK. More information available from US FCC via Universal Licensing System and Coast Guard Vessel Documentation Center.

Last reported at 2018-Feb-22 08:04 UTC. Time now 2018-Feb-22 10:39 UTC.
Position N 53°42' W 129°48'.

Type: Ship. MMSI: 367144000.

Date/timePositionNaut miles runAvg speedWind from/ knotsBaromVisibWave heightAir tempDewpointWater temp
2018-Feb-22 08:04N 53°42' W 129°48'316.4
2018-Feb-22 07:52N 53°45' W 129°52'616.4
2018-Feb-22 07:30N 53°49' W 129°59'816.2
2018-Feb-22 07:00N 53°54' W 130°09'815.6
2018-Feb-22 06:30N 54°02' W 130°14'815.9
2018-Feb-22 06:00N 54°08' W 130°23'816.0
2018-Feb-22 05:30N 54°14' W 130°31'815.6
2018-Feb-22 05:00N 54°21' W 130°36'816.8
2018-Feb-22 04:30N 54°30' W 130°39'916.1
2018-Feb-22 03:59N 54°38' W 130°43'816.0
2018-Feb-22 03:30N 54°43' W 130°52'  
2018-Feb-18 11:18N 54°48' W 130°59'618.7
2018-Feb-18 11:00N 54°43' W 130°52'1018.9
2018-Feb-18 10:29N 54°36' W 130°41'817.7
2018-Feb-18 10:00N 54°28' W 130°38'917.7
2018-Feb-18 09:30N 54°19' W 130°36'918.4
2018-Feb-18 09:00N 54°11' W 130°27'918.6
2018-Feb-18 08:30N 54°04' W 130°17'918.7
2018-Feb-18 08:00N 53°55' W 130°11'918.5
2018-Feb-18 07:30N 53°49' W 129°59'918.8
2018-Feb-18 07:00N 53°42' W 129°49'8916.4
2018-Feb-18 01:34N 52°28' W 128°27'117.0
2018-Feb-18 01:30N 52°27' W 128°28'816.6
2018-Feb-18 01:00N 52°19' W 128°32'815.4
2018-Feb-18 00:29N 52°15' W 128°21'1011.2
2018-Feb-17 23:37N 52°09' W 128°08'1 6.8
2018-Feb-17 23:28N 52°08' W 128°08'814.0
2018-Feb-17 22:53N 52°04' W 127°56'717.6
2018-Feb-17 22:30N 51°57' W 127°56'918.3
2018-Feb-17 22:00N 51°48' W 127°55'918.4
2018-Feb-17 21:30N 51°39' W 127°54'1018.3
2018-Feb-17 20:58N 51°29' W 127°52'817.7
2018-Feb-17 20:30N 51°21' W 127°52'816.1
2018-Feb-17 20:00N 51°13' W 127°51'917.7
2018-Feb-17 19:30N 51°06' W 127°44'918.2
2018-Feb-17 19:00N 50°59' W 127°34'918.9
2018-Feb-17 18:30N 50°54' W 127°21'1019.3
2018-Feb-17 18:00N 50°49' W 127°08'1219.5
2018-Feb-17 17:25N 50°42' W 126°54'919.9
2018-Feb-17 16:59N 50°36' W 126°44'3818.9
2018-Feb-17 14:58N 50°23' W 125°48'1318.9
2018-Feb-17 14:16N 50°20' W 125°27'416.6
2018-Feb-17 14:00N 50°16' W 125°24'917.3
2018-Feb-17 13:30N 50°08' W 125°21'714.7
2018-Feb-17 13:00N 50°02' W 125°14'713.0
2018-Feb-17 12:30N 49°57' W 125°08'713.5
2018-Feb-17 12:00N 49°52' W 125°01'713.2
2018-Feb-17 11:30N 49°48' W 124°53'713.6
2018-Feb-17 11:00N 49°43' W 124°46'713.5
2018-Feb-17 10:30N 49°38' W 124°38'713.2
2018-Feb-17 09:59N 49°33' W 124°31'612.9
2018-Feb-17 09:30N 49°29' W 124°24'611.8
2018-Feb-17 09:00N 49°25' W 124°17'612.3
2018-Feb-17 08:30N 49°24' W 124°08'1312.6
2018-Feb-17 07:29N 49°21' W 123°48'613.2
2018-Feb-17 07:00N 49°17' W 123°41'713.0
2018-Feb-17 06:30N 49°12' W 123°34'713.2
2018-Feb-17 06:00N 49°08' W 123°27'713.4
2018-Feb-17 05:29N 49°03' W 123°19'613.0
2018-Feb-17 05:00N 48°59' W 123°12'815.3
2018-Feb-17 04:30N 48°54' W 123°04'714.2
2018-Feb-17 04:00N 48°49' W 122°55'712.9
2018-Feb-17 03:28N 48°45' W 122°46'714.4
2018-Feb-17 03:00N 48°40' W 122°41'510.5
2018-Feb-17 02:30N 48°41' W 122°33'3 0.3
2018-Feb-16 15:44N 48°43' W 122°31'0 0.9
2018-Feb-16 15:30N 48°44' W 122°31'510.8
2018-Feb-16 15:00N 48°39' W 122°34'612.6
2018-Feb-16 14:30N 48°40' W 122°43'5 9.7
2018-Feb-16 13:59N 48°45' W 122°47'714.5
2018-Feb-16 13:29N 48°49' W 122°57'714.6
2018-Feb-16 13:00N 48°53' W 123°05'714.7
2018-Feb-16 12:30N 48°57' W 123°14'714.4
2018-Feb-16 12:00N 49°02' W 123°22'714.7
2018-Feb-16 11:30N 49°08' W 123°29'714.5
2018-Feb-16 11:00N 49°13' W 123°37'714.4
2018-Feb-16 10:30N 49°18' W 123°44'713.7
2018-Feb-16 10:00N 49°22' W 123°53'814.4
2018-Feb-16 09:26N 49°24' W 124°06'512.5
2018-Feb-16 09:00N 49°25' W 124°14'914.4
2018-Feb-16 08:24N 49°29' W 124°25'615.3
2018-Feb-16 08:00N 49°34' W 124°32'815.5
2018-Feb-16 07:30N 49°39' W 124°40'815.1
2018-Feb-16 07:00N 49°44' W 124°49'815.1
2018-Feb-16 06:30N 49°50' W 124°57'815.2
2018-Feb-16 06:00N 49°55' W 125°05'714.2
2018-Feb-16 05:30N 50°00' W 125°13'510.5
2018-Feb-16 05:00N 50°05' W 125°16'611.9
2018-Feb-16 04:30N 50°10' W 125°22'713.6
2018-Feb-16 04:00N 50°17' W 125°24'612.3
2018-Feb-16 03:29N 50°21' W 125°31'913.0
2018-Feb-16 02:46N 50°22' W 125°46'3714.7
2018-Feb-16 00:15N 50°33' W 126°41'514.4
2018-Feb-15 23:56N 50°37' W 126°45'1016.4
2018-Feb-15 23:19N 50°43' W 126°57'516.2
2018-Feb-15 23:00N 50°46' W 127°03'816.0
2018-Feb-15 22:30N 50°50' W 127°14'816.0
2018-Feb-15 22:00N 50°55' W 127°25'815.9
2018-Feb-15 21:30N 50°59' W 127°35'815.7
2018-Feb-15 21:00N 51°05' W 127°43'916.5
2018-Feb-15 20:28N 51°11' W 127°54'715.3
2018-Feb-15 19:59N 51°18' W 127°56'715.5
2018-Feb-15 19:30N 51°25' W 127°51'816.3
2018-Feb-15 19:00N 51°33' W 127°51'816.0
2018-Feb-15 18:30N 51°41' W 127°55'815.9
2018-Feb-15 18:00N 51°49' W 127°55'816.2
2018-Feb-15 17:30N 51°57' W 127°56'912.3
2018-Feb-15 16:49N 52°04' W 128°03'413.8
2018-Feb-15 16:30N 52°07' W 128°08'6 7.1
2018-Feb-15 15:40N 52°13' W 128°09'415.9
2018-Feb-15 15:24N 52°15' W 128°16'615.4
2018-Feb-15 15:00N 52°16' W 128°26'815.1
2018-Feb-15 14:31N 52°22' W 128°32'9314.2
2018-Feb-15 07:59N 53°42' W 129°49'816.4
2018-Feb-15 07:30N 53°48' W 129°58'816.2
2018-Feb-15 07:00N 53°54' W 130°07'715.0
2018-Feb-15 06:30N 54°00' W 130°13'815.1
2018-Feb-15 06:00N 54°06' W 130°21'815.7
2018-Feb-15 05:30N 54°13' W 130°29'815.9
2018-Feb-15 05:00N 54°19' W 130°36'816.3
2018-Feb-15 04:30N 54°27' W 130°40'816.4
2018-Feb-15 03:59N 54°35' W 130°44'815.6
2018-Feb-15 03:30N 54°42' W 130°50'  
Track history (hours):
 
Tides and Currents Weather Stations Pressure Air Temp Water Temp Dewpoint Dewpoint Depression Visibility Wind Speed Wind Dir Waves Ship Positions

Columbia

Owner: ALASKA, STATE OF, ANCHORAGE, AK. More information available from US FCC via Universal Licensing System and Coast Guard Vessel Documentation Center.

Last reported at 2018-Feb-22 08:04 UTC. Time now 2018-Feb-22 10:39 UTC.
Position N 53°42' W 129°48'.

Type: Ship. MMSI: 367144000.

Date/timePositionNaut miles runAvg speedWind from/ knotsBaromVisibWave heightAir tempDewpointWater temp
2018-Feb-22 08:04N 53°42' W 129°48'316.4
2018-Feb-22 07:52N 53°45' W 129°52'616.4
2018-Feb-22 07:30N 53°49' W 129°59'816.2
2018-Feb-22 07:00N 53°54' W 130°09'815.6
2018-Feb-22 06:30N 54°02' W 130°14'815.9
2018-Feb-22 06:00N 54°08' W 130°23'816.0
2018-Feb-22 05:30N 54°14' W 130°31'815.6
2018-Feb-22 05:00N 54°21' W 130°36'816.8
2018-Feb-22 04:30N 54°30' W 130°39'916.1
2018-Feb-22 03:59N 54°38' W 130°43'816.0
2018-Feb-22 03:30N 54°43' W 130°52'  
2018-Feb-18 11:18N 54°48' W 130°59'618.7
2018-Feb-18 11:00N 54°43' W 130°52'1018.9
2018-Feb-18 10:29N 54°36' W 130°41'817.7
2018-Feb-18 10:00N 54°28' W 130°38'917.7
2018-Feb-18 09:30N 54°19' W 130°36'918.4
2018-Feb-18 09:00N 54°11' W 130°27'918.6
2018-Feb-18 08:30N 54°04' W 130°17'918.7
2018-Feb-18 08:00N 53°55' W 130°11'918.5
2018-Feb-18 07:30N 53°49' W 129°59'918.8
2018-Feb-18 07:00N 53°42' W 129°49'8916.4
2018-Feb-18 01:34N 52°28' W 128°27'117.0
2018-Feb-18 01:30N 52°27' W 128°28'816.6
2018-Feb-18 01:00N 52°19' W 128°32'815.4
2018-Feb-18 00:29N 52°15' W 128°21'1011.2
2018-Feb-17 23:37N 52°09' W 128°08'1 6.8
2018-Feb-17 23:28N 52°08' W 128°08'814.0
2018-Feb-17 22:53N 52°04' W 127°56'717.6
2018-Feb-17 22:30N 51°57' W 127°56'918.3
2018-Feb-17 22:00N 51°48' W 127°55'918.4
2018-Feb-17 21:30N 51°39' W 127°54'1018.3
2018-Feb-17 20:58N 51°29' W 127°52'817.7
2018-Feb-17 20:30N 51°21' W 127°52'816.1
2018-Feb-17 20:00N 51°13' W 127°51'917.7
2018-Feb-17 19:30N 51°06' W 127°44'918.2
2018-Feb-17 19:00N 50°59' W 127°34'918.9
2018-Feb-17 18:30N 50°54' W 127°21'1019.3
2018-Feb-17 18:00N 50°49' W 127°08'1219.5
2018-Feb-17 17:25N 50°42' W 126°54'919.9
2018-Feb-17 16:59N 50°36' W 126°44'3818.9
2018-Feb-17 14:58N 50°23' W 125°48'1318.9
2018-Feb-17 14:16N 50°20' W 125°27'416.6
2018-Feb-17 14:00N 50°16' W 125°24'917.3
2018-Feb-17 13:30N 50°08' W 125°21'714.7
2018-Feb-17 13:00N 50°02' W 125°14'713.0
2018-Feb-17 12:30N 49°57' W 125°08'713.5
2018-Feb-17 12:00N 49°52' W 125°01'713.2
2018-Feb-17 11:30N 49°48' W 124°53'713.6
2018-Feb-17 11:00N 49°43' W 124°46'713.5
2018-Feb-17 10:30N 49°38' W 124°38'713.2
2018-Feb-17 09:59N 49°33' W 124°31'612.9
2018-Feb-17 09:30N 49°29' W 124°24'611.8
2018-Feb-17 09:00N 49°25' W 124°17'612.3
2018-Feb-17 08:30N 49°24' W 124°08'1312.6
2018-Feb-17 07:29N 49°21' W 123°48'613.2
2018-Feb-17 07:00N 49°17' W 123°41'713.0
2018-Feb-17 06:30N 49°12' W 123°34'713.2
2018-Feb-17 06:00N 49°08' W 123°27'713.4
2018-Feb-17 05:29N 49°03' W 123°19'613.0
2018-Feb-17 05:00N 48°59' W 123°12'815.3
2018-Feb-17 04:30N 48°54' W 123°04'714.2
2018-Feb-17 04:00N 48°49' W 122°55'712.9
2018-Feb-17 03:28N 48°45' W 122°46'714.4
2018-Feb-17 03:00N 48°40' W 122°41'510.5
2018-Feb-17 02:30N 48°41' W 122°33'3 0.3
2018-Feb-16 15:44N 48°43' W 122°31'0 0.9
2018-Feb-16 15:30N 48°44' W 122°31'510.8
2018-Feb-16 15:00N 48°39' W 122°34'612.6
2018-Feb-16 14:30N 48°40' W 122°43'5 9.7
2018-Feb-16 13:59N 48°45' W 122°47'714.5
2018-Feb-16 13:29N 48°49' W 122°57'714.6
2018-Feb-16 13:00N 48°53' W 123°05'714.7
2018-Feb-16 12:30N 48°57' W 123°14'714.4
2018-Feb-16 12:00N 49°02' W 123°22'714.7
2018-Feb-16 11:30N 49°08' W 123°29'714.5
2018-Feb-16 11:00N 49°13' W 123°37'714.4
2018-Feb-16 10:30N 49°18' W 123°44'713.7
2018-Feb-16 10:00N 49°22' W 123°53'814.4
2018-Feb-16 09:26N 49°24' W 124°06'512.5
2018-Feb-16 09:00N 49°25' W 124°14'914.4
2018-Feb-16 08:24N 49°29' W 124°25'615.3
2018-Feb-16 08:00N 49°34' W 124°32'815.5
2018-Feb-16 07:30N 49°39' W 124°40'815.1
2018-Feb-16 07:00N 49°44' W 124°49'815.1
2018-Feb-16 06:30N 49°50' W 124°57'815.2
2018-Feb-16 06:00N 49°55' W 125°05'714.2
2018-Feb-16 05:30N 50°00' W 125°13'510.5
2018-Feb-16 05:00N 50°05' W 125°16'611.9
2018-Feb-16 04:30N 50°10' W 125°22'713.6
2018-Feb-16 04:00N 50°17' W 125°24'612.3
2018-Feb-16 03:29N 50°21' W 125°31'913.0
2018-Feb-16 02:46N 50°22' W 125°46'3714.7
2018-Feb-16 00:15N 50°33' W 126°41'514.4
2018-Feb-15 23:56N 50°37' W 126°45'1016.4
2018-Feb-15 23:19N 50°43' W 126°57'516.2
2018-Feb-15 23:00N 50°46' W 127°03'816.0
2018-Feb-15 22:30N 50°50' W 127°14'816.0
2018-Feb-15 22:00N 50°55' W 127°25'815.9
2018-Feb-15 21:30N 50°59' W 127°35'815.7
2018-Feb-15 21:00N 51°05' W 127°43'916.5
2018-Feb-15 20:28N 51°11' W 127°54'715.3
2018-Feb-15 19:59N 51°18' W 127°56'715.5
2018-Feb-15 19:30N 51°25' W 127°51'816.3
2018-Feb-15 19:00N 51°33' W 127°51'816.0
2018-Feb-15 18:30N 51°41' W 127°55'815.9
2018-Feb-15 18:00N 51°49' W 127°55'816.2
2018-Feb-15 17:30N 51°57' W 127°56'912.3
2018-Feb-15 16:49N 52°04' W 128°03'413.8
2018-Feb-15 16:30N 52°07' W 128°08'6 7.1
2018-Feb-15 15:40N 52°13' W 128°09'415.9
2018-Feb-15 15:24N 52°15' W 128°16'615.4
2018-Feb-15 15:00N 52°16' W 128°26'815.1
2018-Feb-15 14:31N 52°22' W 128°32'9314.2
2018-Feb-15 07:59N 53°42' W 129°49'816.4
2018-Feb-15 07:30N 53°48' W 129°58'816.2
2018-Feb-15 07:00N 53°54' W 130°07'715.0
2018-Feb-15 06:30N 54°00' W 130°13'815.1
2018-Feb-15 06:00N 54°06' W 130°21'815.7
2018-Feb-15 05:30N 54°13' W 130°29'815.9
2018-Feb-15 05:00N 54°19' W 130°36'816.3
2018-Feb-15 04:30N 54°27' W 130°40'816.4
2018-Feb-15 03:59N 54°35' W 130°44'815.6
2018-Feb-15 03:30N 54°42' W 130°50'  

Dump ship's entire track history